Terminal Aerodrome Forecast
Issued by NWS

Home | Current Version | Previous Version | Text Only | Print | Product List | Glossary On
Versions: 1 2 3 4 5 6 7 8 9 10 11 12 13 14 15 16 17 18 19 20 21 22 23 24 25 26 27 28 29
000
FTUS45 KBYZ 171120
TAFLVM
TAF
KLVM 171120Z 1712/1812 23018G25KT P6SM SCT200
     FM171800 24025G35KT P6SM SCT150 BKN200
     FM180400 24032G47KT P6SM BKN150
     FM180900 23035G50KT P6SM BKN150=

USA.gov is the U.S. government's official web portal to all federal, state and local government web resources and services.